createdAt,value
2023-04-16T00:00:59.889Z,6.06
2023-04-16T00:02:03.120Z,6.02
2023-04-16T00:03:06.171Z,6.02
2023-04-16T00:04:09.411Z,6.00
2023-04-16T00:05:12.222Z,5.95
2023-04-16T00:06:15.054Z,5.94
2023-04-16T00:07:17.824Z,5.92
2023-04-16T00:08:20.616Z,5.88
2023-04-16T00:09:23.262Z,5.84
2023-04-16T00:10:26.503Z,5.79
2023-04-16T00:11:29.296Z,5.78
2023-04-16T00:12:32.340Z,5.76
2023-04-16T00:13:35.772Z,5.75
2023-04-16T00:14:38.729Z,5.71
2023-04-16T00:15:41.512Z,5.67
2023-04-16T00:16:44.247Z,5.65
2023-04-16T00:17:47.251Z,5.66
2023-04-16T00:18:50.081Z,5.65
2023-04-16T00:19:53.260Z,5.62
2023-04-16T00:20:56.238Z,5.56
2023-04-16T00:21:59.044Z,5.50
2023-04-16T00:23:02.024Z,5.54
2023-04-16T00:24:05.087Z,5.55
2023-04-16T00:25:08.170Z,5.56
2023-04-16T00:26:11.356Z,5.53
2023-04-16T00:27:14.092Z,5.44
2023-04-16T00:28:17.292Z,5.42
2023-04-16T00:29:20.017Z,5.44
2023-04-16T00:30:23.245Z,5.46
2023-04-16T00:31:33.610Z,5.52
2023-04-16T00:32:36.478Z,5.52
2023-04-16T00:33:39.264Z,5.57
2023-04-16T00:34:42.040Z,5.57
2023-04-16T00:35:48.814Z,5.60
2023-04-16T00:36:51.587Z,5.63
2023-04-16T00:37:54.553Z,5.73
2023-04-16T00:38:57.728Z,5.82
2023-04-16T00:40:01.401Z,5.96
2023-04-16T00:41:04.532Z,5.92
2023-04-16T00:42:07.210Z,5.90
2023-04-16T00:43:10.006Z,5.82
2023-04-16T00:44:12.802Z,5.87
2023-04-16T00:45:16.130Z,5.84
2023-04-16T00:46:24.142Z,5.80
2023-04-16T00:47:28.344Z,5.79
2023-04-16T00:48:33.012Z,5.93
2023-04-16T00:49:36.574Z,5.94
2023-04-16T00:50:39.505Z,5.88
2023-04-16T00:51:42.195Z,5.85
2023-04-16T00:52:47.886Z,5.86
2023-04-16T00:53:50.974Z,5.82
2023-04-16T00:54:54.399Z,5.79
2023-04-16T00:55:57.553Z,5.80
2023-04-16T00:57:00.363Z,5.88
2023-04-16T00:58:03.865Z,5.93
2023-04-16T00:59:07.235Z,5.93
2023-04-16T01:00:10.816Z,5.90
2023-04-16T01:01:14.727Z,5.91
2023-04-16T01:02:17.942Z,5.90
2023-04-16T01:03:21.128Z,5.94
2023-04-16T01:04:24.354Z,6.04
2023-04-16T01:05:27.372Z,6.02
2023-04-16T01:06:30.688Z,6.09
2023-04-16T01:07:33.375Z,6.10
2023-04-16T01:08:36.300Z,6.07
2023-04-16T01:09:39.090Z,6.04
2023-04-16T01:10:42.119Z,6.03
2023-04-16T01:11:44.882Z,6.04
2023-04-16T01:12:47.730Z,6.21
2023-04-16T01:13:50.485Z,6.23
2023-04-16T01:14:53.403Z,6.21
2023-04-16T01:15:56.276Z,6.24
2023-04-16T01:16:59.087Z,6.26
2023-04-16T01:18:01.868Z,6.34
2023-04-16T01:19:04.814Z,6.45
2023-04-16T01:20:08.000Z,6.48
2023-04-16T01:21:11.270Z,6.57
2023-04-16T01:22:14.273Z,6.65
2023-04-16T01:23:19.058Z,6.60
2023-04-16T01:24:24.251Z,6.56
2023-04-16T01:25:26.883Z,6.52
2023-04-16T01:26:29.718Z,6.68
2023-04-16T01:27:32.750Z,6.64
2023-04-16T01:28:36.226Z,6.62
2023-04-16T01:29:38.987Z,6.69
2023-04-16T01:30:42.393Z,6.71
2023-04-16T01:31:47.145Z,6.69
2023-04-16T01:32:50.128Z,6.78
2023-04-16T01:33:52.797Z,6.92
2023-04-16T01:34:55.540Z,6.88
2023-04-16T01:35:58.222Z,6.90
2023-04-16T01:37:00.974Z,6.82
2023-04-16T01:38:04.286Z,6.88
2023-04-16T01:39:07.478Z,6.83
2023-04-16T01:40:11.242Z,6.82
2023-04-16T01:41:14.021Z,6.83
2023-04-16T01:42:16.791Z,6.83
2023-04-16T01:43:19.455Z,6.82
2023-04-16T01:44:23.310Z,6.83
2023-04-16T01:45:26.094Z,6.79
2023-04-16T01:46:31.275Z,6.89
2023-04-16T01:47:34.229Z,6.95
2023-04-16T01:48:37.007Z,6.96
2023-04-16T01:49:39.994Z,6.95
2023-04-16T01:50:42.817Z,6.89
2023-04-16T01:51:45.640Z,6.91
2023-04-16T01:52:48.332Z,6.87
2023-04-16T01:53:51.350Z,6.98
2023-04-16T01:54:54.051Z,6.98
2023-04-16T01:55:56.719Z,6.97
2023-04-16T01:56:59.404Z,7.00
2023-04-16T01:58:02.120Z,7.10
2023-04-16T01:59:05.029Z,7.11
2023-04-16T02:00:08.943Z,7.05
2023-04-16T02:01:11.914Z,7.07
2023-04-16T02:02:16.471Z,7.12
2023-04-16T02:03:19.433Z,7.12
2023-04-16T02:04:22.141Z,7.06
2023-04-16T02:05:24.826Z,6.97
2023-04-16T02:06:27.679Z,6.95
2023-04-16T02:07:32.226Z,6.94
2023-04-16T02:08:35.093Z,6.90
2023-04-16T02:09:39.691Z,6.91
2023-04-16T02:10:42.359Z,6.93
2023-04-16T02:11:45.326Z,6.99
2023-04-16T02:12:48.178Z,6.90
2023-04-16T02:13:51.417Z,6.87
2023-04-16T02:14:54.166Z,6.89
2023-04-16T02:15:56.940Z,6.95
2023-04-16T02:17:00.892Z,6.96
2023-04-16T02:18:03.885Z,7.06
2023-04-16T02:19:07.081Z,7.11
2023-04-16T02:20:11.104Z,6.99
2023-04-16T02:21:14.175Z,6.90
2023-04-16T02:22:17.118Z,6.91
2023-04-16T02:23:19.835Z,6.91
2023-04-16T02:24:22.531Z,6.88
2023-04-16T02:25:25.575Z,6.97
2023-04-16T02:26:29.373Z,6.90
2023-04-16T02:27:32.220Z,6.86
2023-04-16T02:28:35.112Z,6.89
2023-04-16T02:29:38.128Z,6.94
2023-04-16T02:30:41.417Z,7.02
2023-04-16T02:31:44.684Z,7.07
2023-04-16T02:32:47.549Z,7.07
2023-04-16T02:33:50.328Z,7.00
2023-04-16T02:34:53.130Z,7.07
2023-04-16T02:35:55.883Z,7.08
2023-04-16T02:36:58.755Z,7.06
2023-04-16T02:38:02.327Z,7.06
2023-04-16T02:39:05.279Z,7.03
2023-04-16T02:40:08.791Z,6.98
2023-04-16T02:41:11.872Z,7.00
2023-04-16T02:42:14.763Z,6.94
2023-04-16T02:43:17.492Z,6.90
2023-04-16T02:44:20.298Z,6.98
2023-04-16T02:45:23.634Z,6.93
2023-04-16T02:46:26.639Z,6.88
2023-04-16T02:47:29.475Z,6.94
2023-04-16T02:48:32.472Z,6.86
2023-04-16T02:49:36.077Z,6.84
2023-04-16T02:50:38.770Z,6.90
2023-04-16T02:51:41.687Z,6.84
2023-04-16T02:52:44.712Z,6.97
2023-04-16T02:53:47.432Z,6.88
2023-04-16T02:54:50.158Z,6.79
2023-04-16T02:55:56.522Z,6.79
2023-04-16T02:56:59.564Z,6.74
2023-04-16T02:58:02.287Z,6.64
2023-04-16T02:59:05.367Z,6.59
2023-04-16T03:00:08.954Z,6.52
2023-04-16T03:01:11.995Z,6.44
2023-04-16T03:02:14.802Z,6.39
2023-04-16T03:03:17.627Z,6.37
2023-04-16T03:04:20.548Z,6.34
2023-04-16T03:05:23.188Z,6.32
2023-04-16T03:06:26.458Z,6.29
2023-04-16T03:07:29.143Z,6.22
2023-04-16T03:08:31.871Z,6.19
2023-04-16T03:09:34.758Z,6.10
2023-04-16T03:10:37.902Z,6.05
2023-04-16T03:11:40.802Z,6.01
2023-04-16T03:12:43.434Z,5.98
2023-04-16T03:13:46.289Z,5.99
2023-04-16T03:14:52.021Z,5.95
2023-04-16T03:15:54.919Z,6.05
2023-04-16T03:16:58.648Z,5.95
2023-04-16T03:18:06.948Z,5.86
2023-04-16T03:19:09.929Z,5.85
2023-04-16T03:20:14.650Z,5.79
2023-04-16T03:21:17.563Z,5.76
2023-04-16T03:22:21.427Z,5.70
2023-04-16T03:23:24.178Z,5.63
2023-04-16T03:24:28.298Z,5.62
2023-04-16T03:25:31.130Z,5.61
2023-04-16T03:26:34.155Z,5.62
2023-04-16T03:27:36.905Z,5.55
2023-04-16T03:28:39.745Z,5.53
2023-04-16T03:29:42.511Z,5.49
2023-04-16T03:30:51.808Z,5.51
2023-04-16T03:31:54.812Z,5.49
2023-04-16T03:32:57.458Z,5.53
2023-04-16T03:34:00.291Z,5.48
2023-04-16T03:35:04.170Z,5.40
2023-04-16T03:36:07.255Z,5.41
2023-04-16T03:37:12.348Z,5.35
2023-04-16T03:38:15.316Z,5.33
2023-04-16T03:39:18.437Z,5.28
2023-04-16T03:40:21.794Z,5.30
2023-04-16T03:41:24.709Z,5.28
2023-04-16T03:42:27.397Z,5.27
2023-04-16T03:43:30.250Z,5.28
2023-04-16T03:44:32.922Z,5.31
2023-04-16T03:45:35.672Z,5.28
2023-04-16T03:46:38.444Z,5.26
2023-04-16T03:47:41.150Z,5.25
2023-04-16T03:48:44.005Z,5.25
2023-04-16T03:49:47.041Z,5.29
2023-04-16T03:50:49.835Z,5.29
2023-04-16T03:51:53.150Z,5.38
2023-04-16T03:52:55.938Z,5.38
2023-04-16T03:53:58.583Z,5.36
2023-04-16T03:55:03.907Z,5.38
2023-04-16T03:56:06.863Z,5.39
2023-04-16T03:57:09.689Z,5.35
2023-04-16T03:58:12.472Z,5.36
2023-04-16T03:59:15.505Z,5.43
2023-04-16T04:00:18.418Z,5.52
2023-04-16T04:01:21.260Z,5.46
2023-04-16T04:02:24.154Z,5.49
2023-04-16T04:03:27.295Z,5.55
2023-04-16T04:04:30.294Z,5.48
2023-04-16T04:05:45.478Z,5.46
2023-04-16T04:06:48.326Z,5.44
2023-04-16T04:07:51.127Z,5.47
2023-04-16T04:08:54.325Z,5.63
2023-04-16T04:09:57.289Z,5.65
2023-04-16T04:11:00.133Z,5.61
2023-04-16T04:12:03.929Z,5.59
2023-04-16T04:13:07.402Z,5.63
2023-04-16T04:14:10.006Z,5.68
2023-04-16T04:15:12.886Z,5.74
2023-04-16T04:16:15.847Z,5.75
2023-04-16T04:17:18.758Z,5.71
2023-04-16T04:18:21.546Z,5.68
2023-04-16T04:19:24.512Z,5.69
2023-04-16T04:20:27.504Z,5.73
2023-04-16T04:21:31.998Z,5.86
2023-04-16T04:22:35.093Z,5.86
2023-04-16T04:23:37.976Z,5.92
2023-04-16T04:24:40.739Z,5.96
2023-04-16T04:25:43.389Z,6.07
2023-04-16T04:26:46.041Z,6.11
2023-04-16T04:27:49.469Z,6.15
2023-04-16T04:28:52.209Z,6.20
2023-04-16T04:29:54.969Z,6.22
2023-04-16T04:30:59.109Z,6.29
2023-04-16T04:32:02.066Z,6.29
2023-04-16T04:33:04.935Z,6.40
2023-04-16T04:34:07.673Z,6.42
2023-04-16T04:35:10.493Z,6.54
2023-04-16T04:36:13.167Z,6.72
2023-04-16T04:37:16.166Z,6.69
2023-04-16T04:38:20.345Z,6.65
2023-04-16T04:39:23.796Z,6.64
2023-04-16T04:40:26.642Z,6.65
2023-04-16T04:41:29.425Z,6.77
2023-04-16T04:42:32.023Z,6.77
2023-04-16T04:43:34.704Z,6.81
2023-04-16T04:44:37.385Z,6.84
2023-04-16T04:45:40.666Z,6.82
2023-04-16T04:46:43.602Z,6.83
2023-04-16T04:47:46.505Z,6.78
2023-04-16T04:48:49.373Z,6.78
2023-04-16T04:49:52.115Z,6.91
2023-04-16T04:50:54.844Z,6.96
2023-04-16T04:51:57.588Z,6.92
2023-04-16T04:53:00.351Z,6.98
2023-04-16T04:54:03.106Z,6.98
2023-04-16T04:55:06.280Z,6.90
2023-04-16T04:56:12.724Z,6.88
2023-04-16T04:57:16.193Z,6.97
2023-04-16T04:58:18.950Z,6.92
2023-04-16T04:59:21.876Z,6.84
2023-04-16T05:00:25.032Z,6.88
2023-04-16T05:01:27.781Z,6.96
2023-04-16T05:02:30.669Z,6.88
2023-04-16T05:03:33.437Z,6.87
2023-04-16T05:04:36.322Z,6.91
2023-04-16T05:05:42.024Z,7.01
2023-04-16T05:06:45.149Z,6.96
2023-04-16T05:07:48.090Z,7.00
2023-04-16T05:08:51.016Z,6.95
2023-04-16T05:09:53.740Z,6.92
2023-04-16T05:10:56.543Z,6.90
2023-04-16T05:11:59.401Z,6.94
2023-04-16T05:13:02.283Z,6.89
2023-04-16T05:14:05.251Z,6.90
2023-04-16T05:15:08.663Z,6.85
2023-04-16T05:16:11.575Z,6.84
2023-04-16T05:17:14.515Z,6.83
2023-04-16T05:18:17.612Z,6.91
2023-04-16T05:19:20.209Z,7.00
2023-04-16T05:20:24.499Z,6.97
2023-04-16T05:21:27.314Z,6.92
2023-04-16T05:22:30.727Z,6.86
2023-04-16T05:23:33.402Z,6.84
2023-04-16T05:24:36.205Z,6.86
2023-04-16T05:25:38.849Z,6.85
2023-04-16T05:26:41.820Z,6.82
2023-04-16T05:27:44.912Z,6.90
2023-04-16T05:28:47.915Z,6.86
2023-04-16T05:29:50.946Z,6.86
2023-04-16T05:30:53.828Z,6.86
2023-04-16T05:31:56.982Z,6.85
2023-04-16T05:33:00.049Z,6.83
2023-04-16T05:34:02.846Z,6.84
2023-04-16T05:35:06.517Z,6.87
2023-04-16T05:36:09.121Z,6.87
2023-04-16T05:37:12.403Z,6.87
2023-04-16T05:38:15.146Z,6.85
2023-04-16T05:39:18.777Z,6.89
2023-04-16T05:40:21.772Z,6.90
2023-04-16T05:41:24.434Z,6.94
2023-04-16T05:42:27.019Z,7.06
2023-04-16T05:43:29.700Z,7.03
2023-04-16T05:44:32.378Z,7.00
2023-04-16T05:45:39.911Z,6.99
2023-04-16T05:46:43.422Z,7.03
2023-04-16T05:47:46.146Z,7.14
2023-04-16T05:48:49.189Z,7.28
2023-04-16T05:49:52.299Z,7.33
2023-04-16T05:50:55.064Z,7.33
2023-04-16T05:51:57.855Z,7.26
2023-04-16T05:53:00.649Z,7.27
2023-04-16T05:54:03.418Z,7.29
2023-04-16T05:55:07.321Z,7.27
2023-04-16T05:56:10.436Z,7.25
2023-04-16T05:57:14.344Z,7.25
2023-04-16T05:58:17.102Z,7.38
2023-04-16T05:59:19.921Z,7.51
2023-04-16T06:00:22.930Z,7.45
2023-04-16T06:01:25.748Z,7.45
2023-04-16T06:02:30.788Z,7.48
2023-04-16T06:03:33.648Z,7.55
2023-04-16T06:04:37.421Z,7.59
2023-04-16T06:05:40.248Z,7.80
2023-04-16T06:06:43.088Z,7.80
2023-04-16T06:07:45.862Z,7.79
2023-04-16T06:08:48.737Z,7.82
2023-04-16T06:09:51.477Z,7.87
2023-04-16T06:10:54.565Z,7.96
2023-04-16T06:11:58.229Z,8.05
2023-04-16T06:13:01.134Z,7.92
2023-04-16T06:14:03.968Z,7.96
2023-04-16T06:15:07.361Z,7.91
2023-04-16T06:16:10.233Z,7.93
2023-04-16T06:17:13.056Z,8.06
2023-04-16T06:18:15.936Z,8.09
2023-04-16T06:19:18.863Z,8.08
2023-04-16T06:20:22.106Z,8.06
2023-04-16T06:21:25.022Z,8.10
2023-04-16T06:22:27.987Z,8.06
2023-04-16T06:23:30.667Z,8.06
2023-04-16T06:24:33.607Z,8.04
2023-04-16T06:25:36.420Z,8.06
2023-04-16T06:26:39.553Z,8.11
2023-04-16T06:27:42.424Z,8.14
2023-04-16T06:28:45.143Z,8.17
2023-04-16T06:29:47.854Z,8.19
2023-04-16T06:30:50.803Z,8.18
2023-04-16T06:31:53.780Z,8.18
2023-04-16T06:32:56.741Z,8.23
2023-04-16T06:33:59.534Z,8.25
2023-04-16T06:35:02.332Z,8.31
2023-04-16T06:36:05.475Z,8.29
2023-04-16T06:37:10.557Z,8.40
2023-04-16T06:38:13.581Z,8.44
2023-04-16T06:39:16.405Z,8.51
2023-04-16T06:40:19.435Z,8.51
2023-04-16T06:41:23.065Z,8.50
2023-04-16T06:42:26.246Z,8.54
2023-04-16T06:43:30.056Z,8.61
2023-04-16T06:44:33.014Z,8.68
2023-04-16T06:45:35.724Z,8.77
2023-04-16T06:46:38.678Z,8.80
2023-04-16T06:47:41.502Z,8.86
2023-04-16T06:48:44.352Z,8.84
2023-04-16T06:49:47.415Z,8.89
2023-04-16T06:50:50.350Z,9.03
2023-04-16T06:51:53.521Z,9.02
2023-04-16T06:52:56.744Z,9.11
2023-04-16T06:53:59.866Z,9.15
2023-04-16T06:55:02.801Z,9.26
2023-04-16T06:56:06.100Z,9.32
2023-04-16T06:57:08.744Z,9.41
2023-04-16T06:58:11.527Z,9.53
2023-04-16T06:59:14.314Z,9.56
2023-04-16T07:00:17.229Z,9.51
2023-04-16T07:01:20.646Z,9.53
2023-04-16T07:02:24.507Z,9.57
2023-04-16T07:03:27.698Z,9.59
2023-04-16T07:04:30.666Z,9.65
2023-04-16T07:05:33.484Z,9.69
2023-04-16T07:06:36.305Z,9.68
2023-04-16T07:07:39.076Z,9.75
2023-04-16T07:08:41.731Z,9.79
2023-04-16T07:09:44.613Z,9.75
2023-04-16T07:10:47.472Z,9.79
2023-04-16T07:11:50.218Z,9.87
2023-04-16T07:12:53.189Z,9.88
2023-04-16T07:13:55.963Z,9.91
2023-04-16T07:14:59.015Z,9.96
2023-04-16T07:16:01.813Z,9.96
2023-04-16T07:17:04.651Z,9.97
2023-04-16T07:18:07.505Z,9.96
2023-04-16T07:19:10.787Z,9.95
2023-04-16T07:20:13.622Z,9.95
2023-04-16T07:21:16.719Z,9.92
2023-04-16T07:22:19.839Z,9.97
2023-04-16T07:23:22.871Z,9.92
2023-04-16T07:24:25.652Z,9.86
2023-04-16T07:25:28.554Z,9.87
2023-04-16T07:26:31.541Z,9.91
2023-04-16T07:27:34.358Z,9.95
2023-04-16T07:28:37.242Z,9.98
2023-04-16T07:29:41.069Z,9.99
2023-04-16T07:30:44.452Z,10.02
2023-04-16T07:31:47.546Z,9.99
2023-04-16T07:32:51.743Z,10.03
2023-04-16T07:33:54.680Z,10.10
2023-04-16T07:34:57.597Z,10.14
2023-04-16T07:36:00.422Z,10.23
2023-04-16T07:37:03.121Z,10.29
2023-04-16T07:38:06.253Z,10.30
2023-04-16T07:39:09.272Z,10.34
2023-04-16T07:40:12.576Z,10.40
2023-04-16T07:41:15.258Z,10.43
2023-04-16T07:42:17.966Z,10.37
2023-04-16T07:43:20.690Z,10.37
2023-04-16T07:44:23.722Z,10.48
2023-04-16T07:45:26.364Z,10.50
2023-04-16T07:46:36.195Z,10.51
2023-04-16T07:47:49.109Z,10.55
2023-04-16T07:48:52.107Z,10.54
2023-04-16T07:49:54.984Z,10.52
2023-04-16T07:50:58.168Z,10.53
2023-04-16T07:52:01.146Z,10.61
2023-04-16T07:53:04.331Z,10.73
2023-04-16T07:54:07.017Z,10.72
2023-04-16T07:55:10.023Z,10.71
2023-04-16T07:56:12.818Z,10.82
2023-04-16T07:57:16.689Z,10.85
2023-04-16T07:58:19.623Z,10.91
2023-04-16T07:59:23.899Z,10.99
2023-04-16T08:00:27.590Z,11.04
2023-04-16T08:01:30.974Z,11.12
2023-04-16T08:02:34.201Z,11.18
2023-04-16T08:03:37.173Z,11.20
2023-04-16T08:04:41.420Z,11.20
2023-04-16T08:05:44.605Z,11.21
2023-04-16T08:06:48.060Z,11.20
2023-04-16T08:07:50.758Z,11.15
2023-04-16T08:08:53.727Z,11.02
2023-04-16T08:09:56.707Z,11.01
2023-04-16T08:11:00.293Z,11.01
2023-04-16T08:12:04.141Z,11.01
2023-04-16T08:13:06.917Z,11.01
2023-04-16T08:14:09.888Z,10.96
2023-04-16T08:15:12.657Z,10.98
2023-04-16T08:16:18.189Z,10.98
2023-04-16T08:17:21.104Z,10.98
2023-04-16T08:18:24.032Z,10.96
2023-04-16T08:19:26.940Z,11.03
2023-04-16T08:20:29.915Z,10.99
2023-04-16T08:21:33.556Z,10.99
2023-04-16T08:22:36.907Z,10.99
2023-04-16T08:23:39.650Z,10.97
2023-04-16T08:24:42.461Z,10.99
2023-04-16T08:25:45.217Z,10.98
2023-04-16T08:26:48.392Z,10.96
2023-04-16T08:27:51.692Z,10.94
2023-04-16T08:28:54.597Z,10.94
2023-04-16T08:29:57.525Z,10.93
2023-04-16T08:31:00.467Z,10.88
2023-04-16T08:32:03.600Z,11.00
2023-04-16T08:33:06.491Z,11.15
2023-04-16T08:34:11.875Z,11.15
2023-04-16T08:35:14.758Z,11.15
2023-04-16T08:36:20.205Z,11.22
2023-04-16T08:37:24.005Z,11.20
2023-04-16T08:38:26.723Z,11.28
2023-04-16T08:39:29.668Z,11.37
2023-04-16T08:40:35.100Z,11.40
2023-04-16T08:41:43.316Z,11.47
2023-04-16T08:42:57.959Z,11.53
2023-04-16T08:44:05.303Z,11.58
2023-04-16T08:45:14.074Z,11.60
2023-04-16T08:46:18.022Z,11.72
2023-04-16T08:47:25.659Z,11.78
2023-04-16T08:48:34.335Z,11.84
2023-04-16T08:49:43.824Z,11.89
2023-04-16T08:50:48.533Z,11.93
2023-04-16T08:51:53.048Z,11.98
2023-04-16T08:53:03.930Z,11.99
2023-04-16T08:54:15.054Z,12.04
2023-04-16T08:55:21.054Z,12.01
2023-04-16T08:56:24.881Z,11.95
2023-04-16T08:57:31.735Z,11.94
2023-04-16T08:58:35.935Z,11.94
2023-04-16T08:59:39.315Z,11.89
2023-04-16T09:00:43.678Z,11.94
2023-04-16T09:01:49.412Z,11.94
2023-04-16T09:02:53.149Z,11.93
2023-04-16T09:03:56.603Z,11.93
2023-04-16T09:05:01.153Z,11.96
2023-04-16T09:06:05.039Z,12.02
2023-04-16T09:07:09.574Z,12.05
2023-04-16T09:08:13.179Z,12.08
2023-04-16T09:09:17.481Z,12.10
2023-04-16T09:10:20.740Z,12.15
2023-04-16T09:11:24.445Z,12.11
2023-04-16T09:12:27.792Z,12.19
2023-04-16T09:13:32.091Z,12.21
2023-04-16T09:14:36.278Z,12.19
2023-04-16T09:15:40.153Z,12.26
2023-04-16T09:16:43.171Z,12.28
2023-04-16T09:17:46.306Z,12.34
2023-04-16T09:18:49.253Z,12.34
2023-04-16T09:19:52.253Z,12.37
2023-04-16T09:20:56.621Z,12.39
2023-04-16T09:21:59.977Z,12.37
2023-04-16T09:23:02.875Z,12.41
2023-04-16T09:24:06.044Z,12.43
2023-04-16T09:25:10.025Z,12.48
2023-04-16T09:26:12.771Z,12.53
2023-04-16T09:27:16.825Z,12.47
2023-04-16T09:28:43.136Z,12.51
2023-04-16T09:29:46.448Z,12.56
2023-04-16T09:30:49.680Z,12.61
2023-04-16T09:32:05.724Z,12.58
2023-04-16T09:33:23.073Z,12.65
2023-04-16T09:34:26.122Z,12.63
2023-04-16T09:35:48.530Z,12.72
2023-04-16T09:36:51.491Z,12.69
2023-04-16T09:37:58.409Z,12.77
2023-04-16T09:39:01.839Z,12.73
2023-04-16T09:40:05.428Z,12.75
2023-04-16T09:41:09.093Z,12.79
2023-04-16T09:42:12.506Z,12.82
2023-04-16T09:43:17.654Z,12.78
2023-04-16T09:44:20.542Z,12.93
2023-04-16T09:45:23.370Z,12.91
2023-04-16T09:46:35.697Z,12.89
2023-04-16T09:47:44.376Z,12.88
2023-04-16T09:48:47.447Z,12.96
2023-04-16T09:49:50.568Z,12.98
2023-04-16T09:50:53.452Z,12.95
2023-04-16T09:51:57.526Z,13.03
2023-04-16T09:53:02.942Z,13.02
2023-04-16T09:54:07.021Z,13.00
2023-04-16T09:55:09.753Z,12.95
2023-04-16T09:56:13.796Z,12.98
2023-04-16T09:57:25.312Z,13.07
2023-04-16T09:58:29.260Z,13.09
2023-04-16T09:59:34.352Z,13.00
2023-04-16T10:00:43.232Z,12.93
2023-04-16T10:01:57.338Z,12.86
2023-04-16T10:03:18.452Z,12.85
2023-04-16T10:04:22.502Z,12.94
2023-04-16T10:05:26.929Z,12.88
2023-04-16T10:06:34.838Z,12.85
2023-04-16T10:07:38.018Z,12.91
2023-04-16T10:08:51.113Z,12.88
2023-04-16T10:09:54.523Z,12.96
2023-04-16T10:10:57.719Z,12.94
2023-04-16T10:12:00.855Z,13.05
2023-04-16T10:13:04.078Z,13.09
2023-04-16T10:14:07.342Z,13.16
2023-04-16T10:15:10.633Z,13.12
2023-04-16T10:16:13.461Z,13.15
2023-04-16T10:17:17.112Z,13.20
2023-04-16T10:18:21.049Z,13.25
2023-04-16T10:19:25.548Z,13.36
2023-04-16T10:20:28.785Z,13.38
2023-04-16T10:21:34.565Z,13.46
2023-04-16T10:22:37.591Z,13.42
2023-04-16T10:23:40.799Z,13.45
2023-04-16T10:24:44.252Z,13.55
2023-04-16T10:25:49.016Z,13.53
2023-04-16T10:26:55.615Z,13.50
2023-04-16T10:27:59.700Z,13.54
2023-04-16T10:29:03.089Z,13.47
2023-04-16T10:30:07.972Z,13.43
2023-04-16T10:31:12.676Z,13.41
2023-04-16T10:32:18.638Z,13.58
2023-04-16T10:33:23.422Z,13.60
2023-04-16T10:34:27.177Z,13.63
2023-04-16T10:35:30.519Z,13.64
2023-04-16T10:36:37.350Z,13.64
2023-04-16T10:37:41.694Z,13.77
2023-04-16T10:38:50.258Z,13.81
2023-04-16T10:39:53.288Z,13.85
2023-04-16T10:41:04.350Z,13.92
2023-04-16T10:42:15.008Z,13.99
2023-04-16T10:43:19.081Z,13.96
2023-04-16T10:44:25.453Z,13.97
2023-04-16T10:45:33.083Z,13.96
2023-04-16T10:46:41.657Z,14.07
2023-04-16T10:47:44.796Z,14.07
2023-04-16T10:48:50.658Z,14.07
2023-04-16T10:49:53.811Z,14.10
2023-04-16T10:50:58.169Z,14.17
2023-04-16T10:52:17.222Z,14.30
2023-04-16T10:53:23.754Z,14.25
2023-04-16T10:54:28.731Z,14.18
2023-04-16T10:55:31.613Z,14.20
2023-04-16T10:56:36.173Z,14.25
2023-04-16T10:57:39.225Z,14.25
2023-04-16T10:58:42.395Z,14.38
2023-04-16T10:59:46.622Z,14.44
2023-04-16T11:00:51.271Z,14.55
2023-04-16T11:01:59.955Z,14.71
2023-04-16T11:03:04.944Z,14.89
2023-04-16T11:04:19.948Z,15.02
2023-04-16T11:05:24.261Z,15.10
2023-04-16T11:06:28.650Z,15.20
2023-04-16T11:07:36.101Z,15.27
2023-04-16T11:08:53.378Z,15.23
2023-04-16T11:10:04.269Z,15.19
2023-04-16T11:11:08.012Z,15.14
2023-04-16T11:12:13.526Z,15.14
2023-04-16T11:13:17.474Z,15.16
2023-04-16T11:14:20.316Z,15.20
2023-04-16T11:15:23.624Z,15.34
2023-04-16T11:16:26.666Z,15.37
2023-04-16T11:17:42.111Z,15.47
2023-04-16T11:18:51.461Z,15.55
2023-04-16T11:19:55.730Z,15.77
2023-04-16T11:20:59.094Z,15.79
2023-04-16T11:22:02.675Z,15.86
2023-04-16T11:23:11.664Z,15.83
2023-04-16T11:24:14.532Z,15.75
2023-04-16T11:25:24.632Z,15.68
2023-04-16T11:26:32.972Z,15.72
2023-04-16T11:27:36.030Z,15.71
2023-04-16T11:28:39.665Z,15.71
2023-04-16T11:29:42.693Z,15.73
2023-04-16T11:30:46.418Z,15.70
2023-04-16T11:31:53.934Z,15.56
2023-04-16T11:32:57.203Z,15.50
2023-04-16T11:34:01.166Z,15.46
2023-04-16T11:35:18.193Z,15.39
2023-04-16T11:36:21.123Z,15.39
2023-04-16T11:37:37.993Z,15.34
2023-04-16T11:38:43.610Z,15.41
2023-04-16T11:39:53.111Z,15.43
2023-04-16T11:40:55.837Z,15.36
2023-04-16T11:41:58.556Z,15.31
2023-04-16T11:43:15.647Z,15.32
2023-04-16T11:44:25.617Z,15.36
2023-04-16T11:45:28.398Z,15.33
2023-04-16T11:46:40.795Z,15.42
2023-04-16T11:47:52.332Z,15.54
2023-04-16T11:48:56.354Z,15.45
2023-04-16T11:50:16.645Z,15.58
2023-04-16T11:51:19.922Z,15.59
2023-04-16T11:52:30.458Z,15.60
2023-04-16T11:53:33.145Z,15.62
2023-04-16T11:54:36.836Z,15.55
2023-04-16T11:55:46.082Z,15.61
2023-04-16T11:56:50.121Z,15.63
2023-04-16T11:57:53.034Z,15.60
2023-04-16T11:59:19.032Z,15.60
2023-04-16T12:00:24.720Z,15.58
2023-04-16T12:01:27.913Z,15.62
2023-04-16T12:02:38.784Z,15.64
2023-04-16T12:03:46.526Z,15.58
2023-04-16T12:04:49.592Z,15.63
2023-04-16T12:05:52.561Z,15.63
2023-04-16T12:07:08.480Z,15.72
2023-04-16T12:08:12.708Z,15.79
2023-04-16T12:09:27.384Z,15.95
2023-04-16T12:10:31.633Z,15.97
2023-04-16T12:11:41.239Z,15.95
2023-04-16T12:12:44.085Z,15.98
2023-04-16T12:14:11.837Z,15.96
2023-04-16T12:15:14.723Z,15.95
2023-04-16T12:16:21.232Z,16.02
2023-04-16T12:17:24.355Z,16.02
2023-04-16T12:18:27.348Z,16.08
2023-04-16T12:19:30.025Z,16.06
2023-04-16T12:20:43.506Z,15.98
2023-04-16T12:21:50.874Z,16.01
2023-04-16T12:22:55.632Z,16.08
2023-04-16T12:23:58.528Z,16.15
2023-04-16T12:25:12.340Z,16.07
2023-04-16T12:26:15.336Z,16.07
2023-04-16T12:27:18.303Z,16.11
2023-04-16T12:28:35.712Z,15.92
2023-04-16T12:29:38.953Z,15.89
2023-04-16T12:30:50.777Z,15.95
2023-04-16T12:31:54.120Z,15.97
2023-04-16T12:33:26.397Z,15.82
2023-04-16T12:34:49.186Z,15.82
2023-04-16T12:35:52.732Z,15.77
2023-04-16T12:37:11.187Z,15.82
2023-04-16T12:38:15.646Z,15.88
2023-04-16T12:39:18.528Z,15.89
2023-04-16T12:40:21.336Z,15.89
2023-04-16T12:41:24.122Z,15.92
2023-04-16T12:42:28.898Z,15.97
2023-04-16T12:43:31.632Z,16.03
2023-04-16T12:44:34.286Z,16.00
2023-04-16T12:45:40.906Z,16.00
2023-04-16T12:46:44.889Z,16.09
2023-04-16T12:47:48.675Z,16.13
2023-04-16T12:48:51.256Z,16.08
2023-04-16T12:49:54.266Z,16.12
2023-04-16T12:50:57.156Z,16.06
2023-04-16T12:51:59.986Z,16.01
2023-04-16T12:53:02.884Z,15.99
2023-04-16T12:54:07.790Z,15.97
2023-04-16T12:55:11.000Z,15.92
2023-04-16T12:56:13.929Z,15.89
2023-04-16T12:57:17.330Z,15.98
2023-04-16T12:58:20.186Z,16.10
2023-04-16T12:59:23.432Z,16.20
2023-04-16T13:00:26.985Z,16.30
2023-04-16T13:01:30.524Z,16.32
2023-04-16T13:02:33.557Z,16.44
2023-04-16T13:03:37.537Z,16.47
2023-04-16T13:04:40.562Z,16.50
2023-04-16T13:05:43.569Z,16.58
2023-04-16T13:06:46.528Z,16.69
2023-04-16T13:07:49.571Z,16.78
2023-04-16T13:08:52.933Z,16.79
2023-04-16T13:09:55.924Z,16.80
2023-04-16T13:10:58.850Z,16.83
2023-04-16T13:12:01.857Z,16.95
2023-04-16T13:13:06.221Z,17.01
2023-04-16T13:14:09.318Z,17.02
2023-04-16T13:15:12.062Z,16.95
2023-04-16T13:16:15.172Z,17.00
2023-04-16T13:17:18.100Z,16.99
2023-04-16T13:18:21.681Z,16.91
2023-04-16T13:19:24.630Z,16.91
2023-04-16T13:20:27.483Z,16.88
2023-04-16T13:21:30.473Z,16.80
2023-04-16T13:22:33.860Z,16.72
2023-04-16T13:23:36.684Z,16.67
2023-04-16T13:24:39.682Z,16.76
2023-04-16T13:25:42.548Z,16.76
2023-04-16T13:26:45.615Z,16.74
2023-04-16T13:27:48.565Z,16.63
2023-04-16T13:28:51.736Z,16.62
2023-04-16T13:29:54.855Z,16.55
2023-04-16T13:30:58.095Z,16.42
2023-04-16T13:32:01.786Z,16.35
2023-04-16T13:33:04.969Z,16.43
2023-04-16T13:34:07.947Z,16.43
2023-04-16T13:35:11.320Z,16.39
2023-04-16T13:36:14.674Z,16.27
2023-04-16T13:37:18.649Z,16.22
2023-04-16T13:38:21.827Z,16.20
2023-04-16T13:39:24.771Z,16.14
2023-04-16T13:40:27.931Z,16.13
2023-04-16T13:41:31.292Z,16.13
2023-04-16T13:42:34.363Z,16.11
2023-04-16T13:43:37.977Z,16.19
2023-04-16T13:44:41.323Z,16.17
2023-04-16T13:45:44.228Z,16.19
2023-04-16T13:46:48.214Z,16.15
2023-04-16T13:47:51.889Z,16.08
2023-04-16T13:48:55.334Z,16.05
2023-04-16T13:49:58.611Z,16.08
2023-04-16T13:51:01.404Z,16.10
2023-04-16T13:52:04.992Z,16.21
2023-04-16T13:53:08.092Z,16.09
2023-04-16T13:54:11.347Z,16.02
2023-04-16T13:55:14.666Z,16.05
2023-04-16T13:56:17.837Z,16.02
2023-04-16T13:57:22.157Z,16.05
2023-04-16T13:58:25.241Z,16.01
2023-04-16T13:59:28.151Z,16.12
2023-04-16T14:00:31.117Z,16.02
2023-04-16T14:01:33.868Z,15.95